createdAt,value
2018-07-06T00:00:47.664Z,21.70
2018-07-06T00:03:41.010Z,21.70
2018-07-06T00:06:34.168Z,21.60
2018-07-06T00:09:27.635Z,21.50
2018-07-06T00:12:20.959Z,21.60
2018-07-06T00:15:14.104Z,21.60
2018-07-06T00:18:07.255Z,21.50
2018-07-06T00:21:00.882Z,21.50
2018-07-06T00:23:54.111Z,21.50
2018-07-06T00:26:47.424Z,21.40
2018-07-06T00:29:40.826Z,21.40
2018-07-06T00:32:34.307Z,21.30
2018-07-06T00:35:27.721Z,21.30
2018-07-06T00:38:21.337Z,21.30
2018-07-06T00:41:14.628Z,21.30
2018-07-06T00:44:07.998Z,21.30
2018-07-06T00:47:01.576Z,21.30
2018-07-06T00:49:55.058Z,21.20
2018-07-06T00:52:48.442Z,21.20
2018-07-06T00:55:41.895Z,21.20
2018-07-06T00:58:35.286Z,21.20
2018-07-06T01:01:28.782Z,21.20
2018-07-06T01:04:22.160Z,21.10
2018-07-06T01:07:15.379Z,21.10
2018-07-06T01:10:08.631Z,21.10
2018-07-06T01:13:02.883Z,21.10
2018-07-06T01:15:56.428Z,21.00
2018-07-06T01:18:49.610Z,21.00
2018-07-06T01:21:42.900Z,21.00
2018-07-06T01:24:35.976Z,21.00
2018-07-06T01:27:29.245Z,21.00
2018-07-06T01:30:22.608Z,21.00
2018-07-06T01:33:15.968Z,21.00
2018-07-06T01:36:09.248Z,20.90
2018-07-06T01:39:02.465Z,20.90
2018-07-06T01:41:55.931Z,20.80
2018-07-06T01:44:49.136Z,20.80
2018-07-06T01:47:42.503Z,20.70
2018-07-06T01:50:35.756Z,20.70
2018-07-06T01:53:29.167Z,20.70
2018-07-06T01:56:22.524Z,20.60
2018-07-06T01:59:16.008Z,20.60
2018-07-06T02:02:09.219Z,20.50
2018-07-06T02:05:02.413Z,20.50
2018-07-06T02:10:43.160Z,20.50
2018-07-06T02:13:36.311Z,20.50
2018-07-06T02:16:29.905Z,20.50
2018-07-06T02:19:23.287Z,20.50
2018-07-06T02:22:16.436Z,20.40
2018-07-06T02:25:09.803Z,20.40
2018-07-06T02:28:03.199Z,20.40
2018-07-06T02:30:57.553Z,20.30
2018-07-06T02:33:50.840Z,20.30
2018-07-06T02:36:44.183Z,20.30
2018-07-06T02:39:37.615Z,20.30
2018-07-06T02:42:30.735Z,20.30
2018-07-06T02:45:24.191Z,20.20
2018-07-06T02:48:17.529Z,20.20
2018-07-06T02:51:10.677Z,20.20
2018-07-06T02:54:03.904Z,20.20
2018-07-06T02:56:57.388Z,20.20
2018-07-06T02:59:50.701Z,20.20
2018-07-06T03:02:43.899Z,20.20
2018-07-06T03:05:37.337Z,20.10
2018-07-06T03:08:30.697Z,20.10
2018-07-06T03:11:24.078Z,20.10
2018-07-06T03:14:17.467Z,20.00
2018-07-06T03:17:11.681Z,20.00
2018-07-06T03:20:05.000Z,19.90
2018-07-06T03:22:58.229Z,19.90
2018-07-06T03:25:51.483Z,19.90
2018-07-06T03:28:45.200Z,19.80
2018-07-06T03:31:38.347Z,19.80
2018-07-06T03:34:31.680Z,19.80
2018-07-06T03:37:25.014Z,19.80
2018-07-06T03:40:18.156Z,19.80
2018-07-06T03:43:11.316Z,19.70
2018-07-06T03:46:05.493Z,19.70
2018-07-06T03:48:58.834Z,19.70
2018-07-06T03:51:51.816Z,19.70
2018-07-06T03:54:45.114Z,19.70
2018-07-06T03:57:38.440Z,19.70
2018-07-06T04:00:31.764Z,19.70
2018-07-06T04:03:25.079Z,19.70
2018-07-06T04:06:18.091Z,19.70
2018-07-06T04:09:11.379Z,19.70
2018-07-06T04:12:04.622Z,19.70
2018-07-06T04:14:57.850Z,19.70
2018-07-06T04:17:51.347Z,19.70
2018-07-06T04:20:44.604Z,19.70
2018-07-06T04:23:37.903Z,19.70
2018-07-06T04:26:31.339Z,19.70
2018-07-06T04:29:24.658Z,19.70
2018-07-06T04:32:17.914Z,19.70
2018-07-06T04:35:11.305Z,19.80
2018-07-06T04:38:04.587Z,19.70
2018-07-06T04:40:57.956Z,19.80
2018-07-06T04:43:51.270Z,19.80
2018-07-06T04:46:44.419Z,19.90
2018-07-06T04:49:37.792Z,19.90
2018-07-06T04:52:31.123Z,19.90
2018-07-06T04:55:24.482Z,20.00
2018-07-06T04:58:17.646Z,20.00
2018-07-06T05:01:11.051Z,20.10
2018-07-06T05:04:04.492Z,20.10
2018-07-06T05:06:57.712Z,20.20
2018-07-06T05:09:51.027Z,20.30
2018-07-06T05:12:44.638Z,20.30
2018-07-06T05:15:37.858Z,20.40
2018-07-06T05:18:31.275Z,20.40
2018-07-06T05:21:24.343Z,20.50
2018-07-06T05:24:17.547Z,20.60
2018-07-06T05:27:10.800Z,20.60
2018-07-06T05:30:03.880Z,20.90
2018-07-06T05:32:57.050Z,21.30
2018-07-06T05:35:50.049Z,21.70
2018-07-06T05:38:43.339Z,22.10
2018-07-06T05:41:36.436Z,22.60
2018-07-06T05:44:29.798Z,22.90
2018-07-06T05:47:23.091Z,23.20
2018-07-06T05:50:16.176Z,23.40
2018-07-06T05:53:09.276Z,23.50
2018-07-06T05:56:02.528Z,23.40
2018-07-06T05:58:55.717Z,23.20
2018-07-06T06:01:48.766Z,23.00
2018-07-06T06:04:42.033Z,22.80
2018-07-06T06:07:26.706Z,22.80
2018-07-06T06:10:02.987Z,22.90
2018-07-06T06:12:39.359Z,23.00
2018-07-06T06:15:15.734Z,23.30
2018-07-06T06:17:52.115Z,23.60
2018-07-06T06:20:28.421Z,23.90
2018-07-06T06:23:04.911Z,24.30
2018-07-06T06:25:41.446Z,24.60
2018-07-06T06:28:17.735Z,25.10
2018-07-06T06:30:54.236Z,25.40
2018-07-06T06:33:30.731Z,25.70
2018-07-06T06:36:07.055Z,26.00
2018-07-06T06:38:43.664Z,26.40
2018-07-06T06:41:20.715Z,26.10
2018-07-06T06:43:57.131Z,26.40
2018-07-06T06:46:33.505Z,26.30
2018-07-06T06:49:09.652Z,26.60
2018-07-06T06:51:46.675Z,26.80
2018-07-06T06:54:22.951Z,27.30
2018-07-06T06:56:59.544Z,27.20
2018-07-06T06:59:35.952Z,27.30
2018-07-06T07:02:12.568Z,27.50
2018-07-06T07:04:49.116Z,27.70
2018-07-06T07:07:25.863Z,28.00
2018-07-06T07:10:02.357Z,28.20
2018-07-06T07:12:38.701Z,28.10
2018-07-06T07:15:15.060Z,28.50
2018-07-06T07:17:51.539Z,28.80
2018-07-06T07:20:27.860Z,28.60
2018-07-06T07:23:04.344Z,28.70
2018-07-06T07:25:40.814Z,28.60
2018-07-06T07:28:17.412Z,28.30
2018-07-06T07:30:53.691Z,28.40
2018-07-06T07:33:30.231Z,28.80
2018-07-06T07:36:06.600Z,29.10
2018-07-06T07:38:43.180Z,29.00
2018-07-06T07:41:19.799Z,29.10
2018-07-06T07:43:56.485Z,28.80
2018-07-06T07:46:32.914Z,28.60
2018-07-06T07:49:09.256Z,28.60
2018-07-06T07:52:13.064Z,28.90
2018-07-06T07:54:51.897Z,29.10
2018-07-06T07:57:28.371Z,29.50
2018-07-06T08:00:04.959Z,29.10
2018-07-06T08:02:41.561Z,29.20
2018-07-06T08:05:18.104Z,29.10
2018-07-06T08:07:54.639Z,29.50
2018-07-06T08:10:31.313Z,29.10
2018-07-06T08:13:07.573Z,29.10
2018-07-06T08:15:43.957Z,29.30
2018-07-06T08:18:20.517Z,29.70
2018-07-06T08:20:56.780Z,29.80
2018-07-06T08:23:33.322Z,30.20
2018-07-06T08:26:09.914Z,29.90
2018-07-06T08:28:46.444Z,29.80
2018-07-06T08:31:23.058Z,30.00
2018-07-06T08:34:16.418Z,30.10
2018-07-06T08:37:41.159Z,30.70
2018-07-06T08:40:18.101Z,30.70
2018-07-06T08:43:01.741Z,30.20
2018-07-06T08:45:38.168Z,29.90
2018-07-06T08:48:14.567Z,30.10
2018-07-06T08:50:50.915Z,30.60
2018-07-06T08:53:27.515Z,30.00
2018-07-06T08:56:03.949Z,29.50
2018-07-06T08:58:40.324Z,29.80
2018-07-06T09:01:16.558Z,29.80
2018-07-06T09:03:53.009Z,29.70
2018-07-06T09:06:29.408Z,29.80
2018-07-06T09:09:06.004Z,30.10
2018-07-06T09:11:42.228Z,30.10
2018-07-06T09:14:18.725Z,29.90
2018-07-06T09:16:55.192Z,29.90
2018-07-06T09:19:31.783Z,30.40
2018-07-06T09:22:08.085Z,30.20
2018-07-06T09:24:45.169Z,30.40
2018-07-06T09:27:21.443Z,30.40
2018-07-06T09:29:58.120Z,30.20
2018-07-06T09:32:34.653Z,30.60
2018-07-06T09:35:10.944Z,30.60
2018-07-06T09:37:47.440Z,31.00
2018-07-06T09:40:23.797Z,30.90
2018-07-06T09:43:00.299Z,30.80
2018-07-06T09:45:36.504Z,30.80
2018-07-06T09:48:13.065Z,31.30
2018-07-06T09:50:49.464Z,31.30
2018-07-06T09:53:25.920Z,31.10
2018-07-06T09:56:02.420Z,31.60
2018-07-06T09:58:38.832Z,31.00
2018-07-06T10:01:15.144Z,31.10
2018-07-06T10:03:51.905Z,31.00
2018-07-06T10:06:28.480Z,30.90
2018-07-06T10:09:06.015Z,30.90
2018-07-06T10:11:42.392Z,30.80
2018-07-06T10:14:18.883Z,30.70
2018-07-06T10:16:55.476Z,30.80
2018-07-06T10:19:32.137Z,31.00
2018-07-06T10:22:08.507Z,30.90
2018-07-06T10:24:44.716Z,30.90
2018-07-06T10:27:21.346Z,30.90
2018-07-06T10:30:19.012Z,30.60
2018-07-06T10:32:55.399Z,30.60
2018-07-06T10:35:31.727Z,30.70
2018-07-06T10:38:08.236Z,30.40
2018-07-06T10:40:44.729Z,30.50
2018-07-06T10:43:21.139Z,30.50
2018-07-06T10:45:57.677Z,30.60
2018-07-06T10:48:34.185Z,31.10
2018-07-06T10:51:10.497Z,31.20
2018-07-06T10:53:46.835Z,31.40
2018-07-06T10:56:23.295Z,31.10
2018-07-06T10:58:59.865Z,30.20
2018-07-06T11:01:36.397Z,29.70
2018-07-06T11:04:13.886Z,29.70
2018-07-06T11:06:50.468Z,29.60
2018-07-06T11:09:27.487Z,29.40
2018-07-06T11:12:04.164Z,29.40
2018-07-06T11:14:40.762Z,29.00
2018-07-06T11:17:17.000Z,28.40
2018-07-06T11:19:53.344Z,28.40
2018-07-06T11:22:29.739Z,28.80
2018-07-06T11:25:06.324Z,29.10
2018-07-06T11:27:42.570Z,29.60
2018-07-06T11:30:19.055Z,29.50
2018-07-06T11:32:55.573Z,29.30
2018-07-06T11:35:32.065Z,29.00
2018-07-06T11:38:08.465Z,28.70
2018-07-06T11:40:44.716Z,28.50
2018-07-06T11:43:21.025Z,28.50
2018-07-06T11:45:57.622Z,28.50
2018-07-06T11:48:34.007Z,28.50
2018-07-06T11:51:12.575Z,28.70
2018-07-06T11:53:48.812Z,29.10
2018-07-06T11:56:25.182Z,29.30
2018-07-06T11:59:01.614Z,29.40
2018-07-06T12:01:37.988Z,29.60
2018-07-06T12:04:14.545Z,29.70
2018-07-06T12:06:50.976Z,29.70
2018-07-06T12:09:27.386Z,29.80
2018-07-06T12:12:03.873Z,29.80
2018-07-06T12:14:40.192Z,29.80
2018-07-06T12:17:16.801Z,29.70
2018-07-06T12:19:53.072Z,29.80
2018-07-06T12:22:29.564Z,29.70
2018-07-06T12:25:06.201Z,29.60
2018-07-06T12:27:42.716Z,29.10
2018-07-06T12:30:19.084Z,29.00
2018-07-06T12:32:55.553Z,28.70
2018-07-06T12:35:31.913Z,28.60
2018-07-06T12:38:08.180Z,28.40
2018-07-06T12:40:44.448Z,28.20
2018-07-06T12:43:21.307Z,28.50
2018-07-06T12:45:57.776Z,28.60
2018-07-06T12:48:34.200Z,28.50
2018-07-06T12:51:10.435Z,28.40
2018-07-06T12:53:46.697Z,28.40
2018-07-06T12:56:23.178Z,28.60
2018-07-06T12:58:59.636Z,28.60
2018-07-06T13:01:36.182Z,28.70
2018-07-06T13:04:12.624Z,28.90
2018-07-06T13:06:49.297Z,28.90
2018-07-06T13:09:25.585Z,28.90
2018-07-06T13:12:02.025Z,28.80
2018-07-06T13:14:38.379Z,28.70
2018-07-06T13:17:14.719Z,28.60
2018-07-06T13:19:51.296Z,28.60
2018-07-06T13:22:27.752Z,28.70
2018-07-06T13:25:04.403Z,28.90
2018-07-06T13:27:40.748Z,28.90
2018-07-06T13:30:17.085Z,29.00
2018-07-06T13:32:53.480Z,29.00
2018-07-06T13:35:29.915Z,29.10
2018-07-06T13:38:06.210Z,29.10
2018-07-06T13:40:42.632Z,29.00
2018-07-06T13:43:18.967Z,29.00
2018-07-06T13:45:55.248Z,28.90
2018-07-06T13:48:31.970Z,28.90
2018-07-06T13:51:08.416Z,28.80
2018-07-06T13:53:44.636Z,28.70
2018-07-06T13:58:57.199Z,28.70
2018-07-06T14:01:33.515Z,28.80
2018-07-06T14:04:09.839Z,29.00
2018-07-06T14:06:46.264Z,29.10
2018-07-06T14:09:22.670Z,29.20
2018-07-06T14:14:35.107Z,29.40
2018-07-06T14:17:11.593Z,29.30
2018-07-06T14:19:47.965Z,29.40
2018-07-06T14:22:24.399Z,29.40
2018-07-06T14:25:00.896Z,29.30
2018-07-06T14:27:37.086Z,29.20
2018-07-06T14:30:13.461Z,29.20
2018-07-06T14:32:50.671Z,29.30
2018-07-06T14:35:26.963Z,29.20
2018-07-06T14:38:03.382Z,29.10
2018-07-06T14:40:39.766Z,28.70
2018-07-06T14:43:16.128Z,28.60
2018-07-06T14:45:52.526Z,28.70
2018-07-06T14:48:29.071Z,28.80
2018-07-06T14:51:05.469Z,28.80
2018-07-06T14:53:41.835Z,28.60
2018-07-06T14:56:18.379Z,28.50
2018-07-06T14:58:54.695Z,28.50
2018-07-06T15:01:31.785Z,28.40
2018-07-06T15:04:08.332Z,28.30
2018-07-06T15:06:44.801Z,28.30
2018-07-06T15:09:21.134Z,28.60
2018-07-06T15:11:57.721Z,28.30
2018-07-06T15:14:34.104Z,28.20
2018-07-06T15:17:10.484Z,28.20
2018-07-06T15:19:46.964Z,28.30
2018-07-06T15:22:23.292Z,28.20
2018-07-06T15:24:59.653Z,28.40
2018-07-06T15:27:36.116Z,28.30
2018-07-06T15:30:12.387Z,28.20
2018-07-06T15:35:24.749Z,28.10
2018-07-06T15:38:01.311Z,28.00
2018-07-06T15:40:37.552Z,27.90
2018-07-06T15:43:14.105Z,27.90
2018-07-06T15:45:50.483Z,27.80
2018-07-06T15:48:26.956Z,27.70
2018-07-06T15:51:03.426Z,27.50
2018-07-06T15:53:39.692Z,27.60
2018-07-06T15:56:16.182Z,27.60
2018-07-06T15:58:52.684Z,27.50
2018-07-06T16:01:29.171Z,27.40
2018-07-06T16:04:05.610Z,27.50
2018-07-06T16:06:42.012Z,27.40
2018-07-06T16:09:18.473Z,27.40
2018-07-06T16:11:55.158Z,27.40
2018-07-06T16:14:31.557Z,27.40
2018-07-06T16:17:07.984Z,27.30
2018-07-06T16:19:44.389Z,27.30
2018-07-06T16:22:20.707Z,27.30
2018-07-06T16:24:57.045Z,27.30
2018-07-06T16:27:33.575Z,27.20
2018-07-06T16:30:09.961Z,27.00
2018-07-06T16:32:46.428Z,27.10
2018-07-06T16:35:22.681Z,27.00
2018-07-06T16:37:59.254Z,27.00
2018-07-06T16:40:35.523Z,26.80
2018-07-06T16:43:11.915Z,26.90
2018-07-06T16:45:48.410Z,26.80
2018-07-06T16:48:24.775Z,26.70
2018-07-06T16:51:01.552Z,26.60
2018-07-06T16:53:37.968Z,26.70
2018-07-06T16:56:15.384Z,26.60
2018-07-06T16:58:51.819Z,26.60
2018-07-06T17:01:28.368Z,26.60
2018-07-06T17:04:05.009Z,26.60
2018-07-06T17:06:41.487Z,26.50
2018-07-06T17:09:18.183Z,26.50
2018-07-06T17:11:54.628Z,26.50
2018-07-06T17:14:31.249Z,26.60
2018-07-06T17:17:07.529Z,26.50
2018-07-06T17:19:44.046Z,26.30
2018-07-06T17:22:20.312Z,26.20
2018-07-06T17:24:56.735Z,26.30
2018-07-06T17:27:33.358Z,26.20
2018-07-06T17:30:09.687Z,26.20
2018-07-06T17:32:46.078Z,26.20
2018-07-06T17:35:22.485Z,26.20
2018-07-06T17:37:59.109Z,26.10
2018-07-06T17:40:35.458Z,26.00
2018-07-06T17:43:12.041Z,25.90
2018-07-06T17:45:48.425Z,25.80
2018-07-06T17:48:24.872Z,25.90
2018-07-06T17:51:01.216Z,25.80
2018-07-06T17:53:37.817Z,25.80
2018-07-06T17:56:14.199Z,25.70
2018-07-06T17:58:50.716Z,25.60
2018-07-06T18:01:27.264Z,25.40
2018-07-06T18:04:03.638Z,25.40
2018-07-06T18:06:40.108Z,25.40
2018-07-06T18:09:16.759Z,25.40
2018-07-06T18:11:53.203Z,25.30
2018-07-06T18:14:29.598Z,25.30
2018-07-06T18:17:06.067Z,25.30
2018-07-06T18:19:42.342Z,25.30
2018-07-06T18:22:18.733Z,25.30
2018-07-06T18:24:55.048Z,25.30
2018-07-06T18:27:31.565Z,25.20
2018-07-06T18:30:07.889Z,25.20
2018-07-06T18:32:44.745Z,25.10
2018-07-06T18:35:21.235Z,25.20
2018-07-06T18:37:57.803Z,25.00
2018-07-06T18:40:34.368Z,25.00
2018-07-06T18:43:10.652Z,24.90
2018-07-06T18:45:47.113Z,24.80
2018-07-06T18:48:23.539Z,24.80
2018-07-06T18:50:59.900Z,24.80
2018-07-06T18:53:36.283Z,24.70
2018-07-06T18:56:13.084Z,24.70
2018-07-06T18:58:49.449Z,24.70
2018-07-06T19:01:25.875Z,24.50
2018-07-06T19:04:02.223Z,24.50
2018-07-06T19:06:38.537Z,24.40
2018-07-06T19:09:14.868Z,24.40
2018-07-06T19:11:51.357Z,24.30
2018-07-06T19:14:27.807Z,24.20
2018-07-06T19:17:04.363Z,24.10
2018-07-06T19:19:40.764Z,24.10
2018-07-06T19:22:17.028Z,24.10
2018-07-06T19:24:53.367Z,24.10
2018-07-06T19:27:29.861Z,24.00
2018-07-06T19:30:06.265Z,23.90
2018-07-06T19:32:43.193Z,23.80
2018-07-06T19:35:19.548Z,23.70
2018-07-06T19:37:56.127Z,23.70
2018-07-06T19:40:32.788Z,23.60
2018-07-06T19:43:09.161Z,23.50
2018-07-06T19:45:45.464Z,23.50
2018-07-06T19:48:21.912Z,23.40
2018-07-06T19:50:58.605Z,23.40
2018-07-06T19:53:34.932Z,23.30
2018-07-06T19:56:11.140Z,23.30
2018-07-06T19:58:47.536Z,23.20
2018-07-06T20:01:23.973Z,23.10
2018-07-06T20:04:00.450Z,23.00
2018-07-06T20:06:36.830Z,23.00
2018-07-06T20:09:13.324Z,22.90
2018-07-06T20:11:49.683Z,22.90
2018-07-06T20:14:26.213Z,22.80
2018-07-06T20:17:02.683Z,22.80
2018-07-06T20:19:38.182Z,22.70
2018-07-06T20:22:14.682Z,22.70
2018-07-06T20:24:52.564Z,22.60
2018-07-06T20:27:29.315Z,22.60
2018-07-06T20:30:05.966Z,22.60
2018-07-06T20:32:42.339Z,22.50
2018-07-06T20:35:18.953Z,22.50
2018-07-06T20:37:55.413Z,22.40
2018-07-06T20:43:08.004Z,22.30
2018-07-06T20:45:44.576Z,22.20
2018-07-06T20:48:20.936Z,22.20
2018-07-06T20:50:57.729Z,22.10
2018-07-06T20:53:34.056Z,22.10
2018-07-06T20:56:10.313Z,22.00
2018-07-06T20:58:46.740Z,21.90
2018-07-06T21:01:23.132Z,21.90
2018-07-06T21:03:59.431Z,21.80
2018-07-06T21:06:35.827Z,21.80
2018-07-06T21:09:12.204Z,21.70
2018-07-06T21:11:48.689Z,21.70
2018-07-06T21:14:25.064Z,21.60
2018-07-06T21:17:01.448Z,21.50
2018-07-06T21:19:37.909Z,21.50
2018-07-06T21:22:14.195Z,21.40
2018-07-06T21:24:50.631Z,21.30
2018-07-06T21:27:27.091Z,21.30
2018-07-06T21:30:03.412Z,21.20
2018-07-06T21:32:39.701Z,21.20
2018-07-06T21:35:16.169Z,21.10
2018-07-06T21:37:52.740Z,21.00
2018-07-06T21:40:29.236Z,20.90
2018-07-06T21:43:05.599Z,20.90
2018-07-06T21:45:42.029Z,20.80
2018-07-06T21:48:18.534Z,20.70
2018-07-06T21:50:54.983Z,20.60
2018-07-06T21:53:32.073Z,20.50
2018-07-06T21:56:08.683Z,20.50
2018-07-06T21:58:45.013Z,20.50
2018-07-06T22:01:21.221Z,20.50
2018-07-06T22:03:57.828Z,20.40
2018-07-06T22:06:34.270Z,20.30
2018-07-06T22:09:10.764Z,20.10
2018-07-06T22:11:47.200Z,20.00
2018-07-06T22:14:23.422Z,19.80
2018-07-06T22:16:59.930Z,19.90
2018-07-06T22:19:36.512Z,19.80
2018-07-06T22:22:12.929Z,19.80
2018-07-06T22:24:49.228Z,19.90
2018-07-06T22:27:25.677Z,19.90
2018-07-06T22:30:02.290Z,19.90
2018-07-06T22:32:38.540Z,19.90
2018-07-06T22:35:14.990Z,19.90
2018-07-06T22:37:51.436Z,19.90
2018-07-06T22:40:27.911Z,19.90
2018-07-06T22:43:04.622Z,19.90
2018-07-06T22:45:40.936Z,19.80
2018-07-06T22:48:17.846Z,19.70
2018-07-06T22:50:54.319Z,19.70
2018-07-06T22:53:30.741Z,19.70
2018-07-06T22:56:07.137Z,19.60
2018-07-06T22:58:43.600Z,19.50
2018-07-06T23:01:20.091Z,19.40
2018-07-06T23:03:56.612Z,19.40
2018-07-06T23:06:33.224Z,19.40
2018-07-06T23:09:09.551Z,19.40
2018-07-06T23:11:46.004Z,19.30
2018-07-06T23:14:22.356Z,19.20
2018-07-06T23:16:59.461Z,19.10
2018-07-06T23:19:36.048Z,19.10
2018-07-06T23:22:14.504Z,19.00
2018-07-06T23:24:50.681Z,19.00
2018-07-06T23:27:27.384Z,18.90
2018-07-06T23:30:04.017Z,18.90
2018-07-06T23:32:40.582Z,18.90
2018-07-06T23:35:16.994Z,18.80
2018-07-06T23:37:53.340Z,18.80
2018-07-06T23:40:29.952Z,18.80
2018-07-06T23:43:06.312Z,18.70
2018-07-06T23:45:42.603Z,18.70
2018-07-06T23:48:18.903Z,18.70
2018-07-06T23:50:56.065Z,18.60
2018-07-06T23:53:32.764Z,18.60
2018-07-06T23:56:09.082Z,18.50
2018-07-06T23:58:45.635Z,18.50
